Time;durP1;ratioP1;P1;durP2;ratioP2;P2;SDS_P1;SDS_P2;PMS_P1;PMS_P2;Temp;Humidity;BMP_temperature;BMP_pressure;BME280_temperature;BME280_humidity;BME280_pressure;Samples;Min_cycle;Max_cycle;Signal;HPM_P1;HPM_P2
2022/05/07 00:01:55;;;;;;;;;;;14.50;99.90;;;;;;5075653;28;19958;-80
2022/05/07 00:04:20;;;;;;;;;;;14.40;99.90;;;;;;5073947;28;19987;-79
2022/05/07 00:06:46;;;;;;;;;;;14.20;99.90;;;;;;5074941;28;19913;-81
2022/05/07 00:09:11;;;;;;;;;;;14.20;99.90;;;;;;5074900;28;19904;-78
2022/05/07 00:11:37;;;;;;;;;;;14.30;99.90;;;;;;5074838;28;20433;-78
2022/05/07 00:14:02;;;;;;;;;;;14.20;99.90;;;;;;5074967;28;19911;-79
2022/05/07 00:19:12;;;;;;;;;;;14.30;99.90;;;;;;5074474;28;19958;-78
2022/05/07 00:21:38;;;;;;;;;;;14.10;99.90;;;;;;5056682;28;19939;-80
2022/05/07 00:24:03;;;;;;;;;;;13.90;99.90;;;;;;5074990;28;20376;-79
2022/05/07 00:26:29;;;;;;;;;;;13.90;99.90;;;;;;5074657;28;19915;-80
2022/05/07 00:28:55;;;;;;;;;;;14.10;99.90;;;;;;5074695;28;19905;-78
2022/05/07 00:31:20;;;;;;;;;;;14.20;99.90;;;;;;5074735;28;19911;-78
2022/05/07 00:33:46;;;;;;;;;;;14.20;99.90;;;;;;5074466;28;20356;-80
2022/05/07 00:36:11;;;;;;;;;;;14.10;99.90;;;;;;5074389;28;19911;-81
2022/05/07 00:38:37;;;;;;;;;;;14.10;99.90;;;;;;5074181;28;19917;-80
2022/05/07 00:41:03;;;;;;;;;;;14.20;99.90;;;;;;5074312;28;19954;-79
2022/05/07 00:43:35;;;;;;;;;;;14.10;99.90;;;;;;5074232;28;19998;-78
2022/05/07 00:46:01;;;;;;;;;;;14.10;99.90;;;;;;5074151;28;20265;-80
2022/05/07 00:48:26;;;;;;;;;;;14.20;99.90;;;;;;5074194;28;19951;-77
2022/05/07 00:53:37;;;;;;;;;;;14.20;99.90;;;;;;5074157;28;19935;-78
2022/05/07 00:56:03;;;;;;;;;;;14.20;99.90;;;;;;5056180;28;20265;-78
2022/05/07 00:58:28;;;;;;;;;;;14.30;99.90;;;;;;5073999;28;19908;-80
2022/05/07 01:00:54;;;;;;;;;;;14.30;99.90;;;;;;5073951;28;19948;-80
2022/05/07 01:03:19;;;;;;;;;;;14.10;99.90;;;;;;5074305;28;19904;-77
2022/05/07 01:05:45;;;;;;;;;;;13.70;99.90;;;;;;5073828;28;20268;-80
2022/05/07 01:08:12;;;;;;;;;;;13.40;99.90;;;;;;5074088;28;19904;-78
2022/05/07 01:10:38;;;;;;;;;;;13.20;99.90;;;;;;5073796;28;19987;-80
2022/05/07 01:13:04;;;;;;;;;;;13.20;99.90;;;;;;5074004;28;19904;-80
2022/05/07 01:15:30;;;;;;;;;;;13.00;99.90;;;;;;5073504;28;19998;-78
2022/05/07 01:17:56;;;;;;;;;;;13.20;99.90;;;;;;5073724;28;19954;-79
2022/05/07 01:20:22;;;;;;;;;;;13.50;99.90;;;;;;5073789;28;19904;-81
2022/05/07 01:22:48;;;;;;;;;;;13.70;99.90;;;;;;5055744;28;20311;-80
2022/05/07 01:25:14;;;;;;;;;;;13.90;99.90;;;;;;5055606;28;19958;-78
2022/05/07 01:27:39;;;;;;;;;;;14.00;99.90;;;;;;5073746;28;19904;-79
2022/05/07 01:30:06;;;;;;;;;;;14.00;99.90;;;;;;5073621;28;19905;-79
2022/05/07 01:32:31;;;;;;;;;;;13.90;99.90;;;;;;5074000;28;20365;-77
2022/05/07 01:34:57;;;;;;;;;;;13.90;99.90;;;;;;5055616;28;19916;-79
2022/05/07 01:37:23;;;;;;;;;;;14.00;99.90;;;;;;5073457;28;20372;-79
2022/05/07 01:39:50;;;;;;;;;;;14.10;99.90;;;;;;5055680;28;19920;-78
2022/05/07 01:42:16;;;;;;;;;;;14.10;99.90;;;;;;5055524;28;19914;-79
2022/05/07 01:44:41;;;;;;;;;;;14.10;99.90;;;;;;5073763;28;19926;-79
2022/05/07 01:49:51;;;;;;;;;;;13.90;99.90;;;;;;5073396;28;19911;-80
2022/05/07 01:52:17;;;;;;;;;;;14.00;99.90;;;;;;5073608;28;19904;-78
2022/05/07 01:54:43;;;;;;;;;;;14.00;99.90;;;;;;5073645;28;19904;-78
2022/05/07 01:57:09;;;;;;;;;;;14.00;99.90;;;;;;5073404;28;19915;-77
2022/05/07 01:59:34;;;;;;;;;;;14.10;99.90;;;;;;5073383;28;19987;-80
2022/05/07 02:02:00;;;;;;;;;;;14.20;99.90;;;;;;5073307;28;19904;-80
2022/05/07 02:04:25;;;;;;;;;;;14.30;99.90;;;;;;5073456;28;19991;-78
2022/05/07 02:06:52;;;;;;;;;;;14.20;99.90;;;;;;5073237;28;19908;-80
2022/05/07 02:09:18;;;;;;;;;;;14.20;99.90;;;;;;5073285;28;19904;-79
2022/05/07 02:11:44;;;;;;;;;;;14.20;99.90;;;;;;5073420;28;19904;-80
2022/05/07 02:14:10;;;;;;;;;;;14.00;99.90;;;;;;5073203;28;19919;-77
2022/05/07 02:16:36;;;;;;;;;;;14.10;99.90;;;;;;5055232;28;19904;-78
2022/05/07 02:19:02;;;;;;;;;;;14.00;99.90;;;;;;5055134;28;19904;-79
2022/05/07 02:21:28;;;;;;;;;;;14.20;99.90;;;;;;5073195;28;19908;-80
2022/05/07 02:23:53;;;;;;;;;;;14.20;99.90;;;;;;5073125;28;19908;-80
2022/05/07 02:26:19;;;;;;;;;;;14.10;99.90;;;;;;5073036;28;20008;-78
2022/05/07 02:28:44;;;;;;;;;;;14.10;99.90;;;;;;5076502;28;19918;-80
2022/05/07 02:31:10;;;;;;;;;;;14.00;99.90;;;;;;5076762;28;20323;-78
2022/05/07 02:33:36;;;;;;;;;;;14.10;99.90;;;;;;5058763;28;19979;-79
2022/05/07 02:36:01;;;;;;;;;;;14.00;99.90;;;;;;5076829;28;19936;-78
2022/05/07 02:38:27;;;;;;;;;;;14.00;99.90;;;;;;5076600;28;19916;-79
2022/05/07 02:43:37;;;;;;;;;;;14.10;99.90;;;;;;5076265;28;20434;-78
2022/05/07 02:46:02;;;;;;;;;;;14.20;99.90;;;;;;5076419;28;19908;-81
2022/05/07 02:48:28;;;;;;;;;;;14.00;99.90;;;;;;5076473;28;20276;-78
2022/05/07 02:50:54;;;;;;;;;;;14.10;99.90;;;;;;5076451;28;19905;-78
2022/05/07 02:53:20;;;;;;;;;;;14.00;99.90;;;;;;5076501;28;19904;-81
2022/05/07 02:55:46;;;;;;;;;;;13.80;99.90;;;;;;5058390;28;19905;-80
2022/05/07 02:58:11;;;;;;;;;;;13.80;99.90;;;;;;5076392;28;20414;-79
2022/05/07 03:00:37;;;;;;;;;;;14.00;99.90;;;;;;5076515;28;19905;-81
2022/05/07 03:03:03;;;;;;;;;;;14.00;99.90;;;;;;5076220;28;19943;-78
2022/05/07 03:05:29;;;;;;;;;;;14.10;99.90;;;;;;5076135;28;20368;-77
2022/05/07 03:07:58;;;;;;;;;;;13.90;99.90;;;;;;5076095;28;19911;-79
2022/05/07 03:10:23;;;;;;;;;;;13.90;99.90;;;;;;5076328;28;20379;-80
2022/05/07 03:12:49;;;;;;;;;;;13.80;99.90;;;;;;5076076;28;19904;-79
2022/05/07 03:15:14;;;;;;;;;;;13.80;99.90;;;;;;5075993;28;19912;-79
2022/05/07 03:17:40;;;;;;;;;;;13.90;99.90;;;;;;5057976;28;20326;-79
2022/05/07 03:20:09;;;;;;;;;;;13.90;99.90;;;;;;5076156;28;19904;-79
2022/05/07 03:22:35;;;;;;;;;;;14.00;99.90;;;;;;5075826;28;19904;-78
2022/05/07 03:25:01;;;;;;;;;;;14.00;99.90;;;;;;5075789;28;19908;-77
2022/05/07 03:27:29;;;;;;;;;;;14.10;99.90;;;;;;5075977;28;20368;-80
2022/05/07 03:29:55;;;;;;;;;;;14.20;99.90;;;;;;5057699;28;19904;-79
2022/05/07 03:32:20;;;;;;;;;;;14.30;99.90;;;;;;5057719;28;19904;-80
2022/05/07 03:34:46;;;;;;;;;;;14.30;99.90;;;;;;5075600;28;20361;-77
2022/05/07 03:37:12;;;;;;;;;;;14.20;99.90;;;;;;5057443;28;19911;-81
2022/05/07 03:39:37;;;;;;;;;;;14.20;99.90;;;;;;5075888;28;20365;-80
2022/05/07 03:42:03;;;;;;;;;;;14.10;99.90;;;;;;5075776;28;19905;-80
2022/05/07 03:44:28;;;;;;;;;;;14.20;99.90;;;;;;5075859;28;20418;-79
2022/05/07 03:46:54;;;;;;;;;;;14.20;99.90;;;;;;5075489;28;20276;-81
2022/05/07 03:49:20;;;;;;;;;;;14.20;99.90;;;;;;5075493;28;19904;-79
2022/05/07 03:54:29;;;;;;;;;;;13.80;99.90;;;;;;5075424;28;19911;-78
2022/05/07 03:56:55;;;;;;;;;;;13.90;99.90;;;;;;5075435;28;19904;-78
2022/05/07 03:59:20;;;;;;;;;;;14.20;99.90;;;;;;5075583;28;19910;-80
2022/05/07 04:01:46;;;;;;;;;;;14.30;99.90;;;;;;5075478;28;20284;-80
2022/05/07 04:04:11;;;;;;;;;;;14.40;99.90;;;;;;5075996;28;19947;-79
2022/05/07 04:06:37;;;;;;;;;;;14.40;99.90;;;;;;5075743;28;19909;-81
2022/05/07 04:09:03;;;;;;;;;;;14.30;99.90;;;;;;5075838;28;19957;-79
2022/05/07 04:11:28;;;;;;;;;;;14.30;99.90;;;;;;5076250;28;19983;-81
2022/05/07 04:13:54;;;;;;;;;;;14.20;99.90;;;;;;5075674;28;19905;-80
2022/05/07 04:16:19;;;;;;;;;;;14.20;99.90;;;;;;5075720;28;19904;-81
2022/05/07 04:18:45;;;;;;;;;;;14.20;99.90;;;;;;5074926;28;19904;-78
2022/05/07 04:21:10;;;;;;;;;;;14.00;99.90;;;;;;5075545;28;20352;-79
2022/05/07 04:23:36;;;;;;;;;;;13.90;99.90;;;;;;5074738;28;19908;-80
2022/05/07 04:26:02;;;;;;;;;;;13.80;99.90;;;;;;5074506;28;19940;-80
2022/05/07 04:28:27;;;;;;;;;;;13.70;99.90;;;;;;5075124;28;19904;-78
2022/05/07 04:30:53;;;;;;;;;;;13.70;99.90;;;;;;5074571;28;19911;-79
2022/05/07 04:33:18;;;;;;;;;;;13.80;99.90;;;;;;5074530;28;20288;-81
2022/05/07 04:35:44;;;;;;;;;;;13.80;99.90;;;;;;5074840;28;19910;-81
2022/05/07 04:38:09;;;;;;;;;;;13.80;99.90;;;;;;5074152;28;20350;-79
2022/05/07 04:40:35;;;;;;;;;;;13.60;99.90;;;;;;5056356;28;19911;-79
2022/05/07 04:43:01;;;;;;;;;;;13.50;99.90;;;;;;5074424;28;19950;-79
2022/05/07 04:45:28;;;;;;;;;;;13.60;99.90;;;;;;5074177;28;20380;-79
2022/05/07 04:47:54;;;;;;;;;;;14.10;99.90;;;;;;5074646;28;19998;-81
2022/05/07 04:50:19;;;;;;;;;;;14.30;99.90;;;;;;5073823;28;19951;-77
2022/05/07 04:52:45;;;;;;;;;;;14.30;99.90;;;;;;5074266;28;19911;-80
2022/05/07 04:55:11;;;;;;;;;;;14.20;99.90;;;;;;5074699;28;19916;-77
2022/05/07 04:57:36;;;;;;;;;;;14.20;99.90;;;;;;5074059;28;19950;-80
2022/05/07 05:00:03;;;;;;;;;;;14.30;99.90;;;;;;5074073;28;20288;-79
2022/05/07 05:02:29;;;;;;;;;;;14.30;99.90;;;;;;5056046;28;20429;-77
2022/05/07 05:04:54;;;;;;;;;;;14.40;99.90;;;;;;5073881;28;19904;-81
2022/05/07 05:07:20;;;;;;;;;;;14.60;99.90;;;;;;5074218;28;20250;-81
2022/05/07 05:09:45;;;;;;;;;;;14.60;99.90;;;;;;5074360;28;19908;-80
2022/05/07 05:12:11;;;;;;;;;;;14.80;99.90;;;;;;5055862;28;19940;-78
2022/05/07 05:17:21;;;;;;;;;;;14.70;99.90;;;;;;5073861;28;19912;-79
2022/05/07 05:19:46;;;;;;;;;;;14.80;99.90;;;;;;5073716;28;20284;-77
2022/05/07 05:22:12;;;;;;;;;;;14.90;99.90;;;;;;5074042;28;19904;-79
2022/05/07 05:24:38;;;;;;;;;;;14.90;99.90;;;;;;5073703;28;19905;-80
2022/05/07 05:27:03;;;;;;;;;;;14.90;99.90;;;;;;5073655;28;19908;-77
2022/05/07 05:29:29;;;;;;;;;;;14.80;99.90;;;;;;5073636;28;19943;-79
2022/05/07 05:31:55;;;;;;;;;;;14.90;99.90;;;;;;5073666;28;19904;-81
2022/05/07 05:34:21;;;;;;;;;;;15.10;99.90;;;;;;5073724;28;19915;-78
2022/05/07 05:36:46;;;;;;;;;;;15.10;99.90;;;;;;5055611;28;19908;-78
2022/05/07 05:39:12;;;;;;;;;;;15.00;99.90;;;;;;5073146;28;19916;-80
2022/05/07 05:41:41;;;;;;;;;;;15.00;99.90;;;;;;5073543;28;20280;-79
2022/05/07 05:44:06;;;;;;;;;;;15.10;99.90;;;;;;5073811;28;19904;-80
2022/05/07 05:46:32;;;;;;;;;;;15.20;99.90;;;;;;5073382;28;19909;-81
2022/05/07 05:48:58;;;;;;;;;;;15.30;99.90;;;;;;5073463;28;19904;-81
2022/05/07 05:51:23;;;;;;;;;;;15.40;99.90;;;;;;5073414;28;20395;-80
2022/05/07 05:53:49;;;;;;;;;;;15.40;99.90;;;;;;5073617;28;19909;-79
2022/05/07 05:56:14;;;;;;;;;;;15.40;99.90;;;;;;5073575;28;19905;-77
2022/05/07 05:58:40;;;;;;;;;;;15.40;99.90;;;;;;5055709;28;20390;-80
2022/05/07 06:01:08;;;;;;;;;;;15.60;99.90;;;;;;5073393;28;19951;-79
2022/05/07 06:03:34;;;;;;;;;;;15.70;99.90;;;;;;5076551;28;20319;-80
2022/05/07 06:06:00;;;;;;;;;;;15.80;99.90;;;;;;5077234;28;19954;-78
2022/05/07 06:08:25;;;;;;;;;;;15.90;99.90;;;;;;5077561;28;20019;-79
2022/05/07 06:10:55;;;;;;;;;;;16.10;99.90;;;;;;5059128;28;19904;-78
2022/05/07 06:13:21;;;;;;;;;;;16.30;99.90;;;;;;5077736;28;19905;-78
2022/05/07 06:15:51;;;;;;;;;;;16.30;99.90;;;;;;5059143;28;19911;-78
2022/05/07 06:18:20;;;;;;;;;;;16.20;99.90;;;;;;5059060;28;20003;-78
2022/05/07 06:20:45;;;;;;;;;;;16.10;99.90;;;;;;5077324;28;19905;-78
2022/05/07 06:23:11;;;;;;;;;;;16.10;99.90;;;;;;5077126;28;20429;-80
2022/05/07 06:28:24;;;;;;;;;;;15.70;99.90;;;;;;5076876;28;19957;-79
2022/05/07 06:30:49;;;;;;;;;;;15.90;99.90;;;;;;5077019;28;19908;-78
2022/05/07 06:33:15;;;;;;;;;;;15.60;99.90;;;;;;5058848;28;20289;-79
2022/05/07 06:35:41;;;;;;;;;;;15.70;99.90;;;;;;5076867;28;19919;-78
2022/05/07 06:38:09;;;;;;;;;;;15.80;99.90;;;;;;5076577;28;19924;-77
2022/05/07 06:40:37;;;;;;;;;;;15.80;99.90;;;;;;5077297;28;19905;-81
2022/05/07 06:43:03;;;;;;;;;;;16.10;99.90;;;;;;5058779;28;20364;-79
2022/05/07 06:45:28;;;;;;;;;;;16.40;99.90;;;;;;5076521;28;19912;-80
2022/05/07 06:47:54;;;;;;;;;;;16.50;99.90;;;;;;5076772;28;19951;-79
2022/05/07 06:50:20;;;;;;;;;;;16.70;99.90;;;;;;5058589;28;19912;-79
2022/05/07 06:52:46;;;;;;;;;;;16.70;99.90;;;;;;5058513;28;19909;-78
2022/05/07 06:55:12;;;;;;;;;;;16.80;99.90;;;;;;5076651;28;19912;-80
2022/05/07 06:57:38;;;;;;;;;;;17.00;99.90;;;;;;5077088;28;19908;-79
2022/05/07 07:00:03;;;;;;;;;;;17.40;99.90;;;;;;5058357;28;19905;-80
2022/05/07 07:02:29;;;;;;;;;;;17.70;99.90;;;;;;5076313;28;19915;-79
2022/05/07 07:04:55;;;;;;;;;;;17.80;99.90;;;;;;5075989;28;20374;-79
2022/05/07 07:07:25;;;;;;;;;;;18.00;99.90;;;;;;5076483;28;19905;-80
2022/05/07 07:09:51;;;;;;;;;;;18.20;99.90;;;;;;5076136;28;19912;-81
2022/05/07 07:12:16;;;;;;;;;;;18.40;99.90;;;;;;5075914;28;19904;-79
2022/05/07 07:14:42;;;;;;;;;;;18.80;99.90;;;;;;5075590;28;19905;-79
2022/05/07 07:17:07;;;;;;;;;;;18.80;99.90;;;;;;5058323;28;20365;-79
2022/05/07 07:19:34;;;;;;;;;;;18.80;99.90;;;;;;5076114;28;19905;-80
2022/05/07 07:22:00;;;;;;;;;;;19.20;99.90;;;;;;5076082;28;19951;-79
2022/05/07 07:24:26;;;;;;;;;;;19.10;99.90;;;;;;5075936;28;19905;-79
2022/05/07 07:26:52;;;;;;;;;;;19.30;99.90;;;;;;5057896;28;19908;-79
2022/05/07 07:29:17;;;;;;;;;;;19.30;99.90;;;;;;5076129;28;19954;-78
2022/05/07 07:31:43;;;;;;;;;;;19.40;99.90;;;;;;5075718;28;19904;-79
2022/05/07 07:34:08;;;;;;;;;;;19.60;99.90;;;;;;5075734;28;19916;-80
2022/05/07 07:36:34;;;;;;;;;;;19.60;99.90;;;;;;5075944;28;20280;-79
2022/05/07 07:39:01;;;;;;;;;;;19.60;99.90;;;;;;5054293;28;19916;-79
2022/05/07 07:41:27;;;;;;;;;;;19.70;99.90;;;;;;5055744;28;19912;-80
2022/05/07 07:43:53;;;;;;;;;;;20.10;99.90;;;;;;5054268;28;19905;-79
2022/05/07 07:49:02;;;;;;;;;;;21.10;99.90;;;;;;5055387;28;20292;-81
2022/05/07 07:51:28;;;;;;;;;;;21.90;97.50;;;;;;5055606;28;19905;-78
2022/05/07 07:53:53;;;;;;;;;;;21.30;96.60;;;;;;5055368;28;20272;-79
2022/05/07 07:56:19;;;;;;;;;;;20.90;98.50;;;;;;5054174;28;19909;-80
2022/05/07 07:58:44;;;;;;;;;;;20.60;99.10;;;;;;5055378;28;20385;-79
2022/05/07 08:01:10;;;;;;;;;;;20.30;99.80;;;;;;5055958;28;19904;-78
2022/05/07 08:03:36;;;;;;;;;;;19.90;99.90;;;;;;5055578;28;19989;-78
2022/05/07 08:06:01;;;;;;;;;;;19.50;99.90;;;;;;5055162;28;19979;-78
2022/05/07 08:13:55;;;;;;;;;;;18.80;99.90;;;;;;5054913;28;19927;-78
2022/05/07 08:16:22;;;;;;;;;;;18.70;99.90;;;;;;5055612;28;20345;-80
2022/05/07 08:18:49;;;;;;;;;;;18.70;99.90;;;;;;5053772;28;19905;-78
2022/05/07 08:21:14;;;;;;;;;;;19.00;99.90;;;;;;5054896;28;19954;-79
2022/05/07 08:23:40;;;;;;;;;;;19.10;99.90;;;;;;5055123;28;19904;-80
2022/05/07 08:26:07;;;;;;;;;;;19.20;99.90;;;;;;5053953;28;20361;-79
2022/05/07 08:28:33;;;;;;;;;;;20.00;99.90;;;;;;5053363;28;19987;-78
2022/05/07 08:30:58;;;;;;;;;;;20.30;99.80;;;;;;5054643;28;19970;-79
2022/05/07 08:33:24;;;;;;;;;;;20.10;99.90;;;;;;5054545;28;19905;-80
2022/05/07 08:35:50;;;;;;;;;;;20.30;99.10;;;;;;5054559;28;20365;-78
2022/05/07 08:38:15;;;;;;;;;;;20.40;98.20;;;;;;5064062;28;19917;-81
2022/05/07 08:40:41;;;;;;;;;;;20.10;98.90;;;;;;5074710;28;19911;-78
2022/05/07 08:43:07;;;;;;;;;;;20.10;99.10;;;;;;5074605;28;20388;-77
2022/05/07 08:45:34;;;;;;;;;;;20.30;99.20;;;;;;5074345;28;19909;-79
2022/05/07 08:47:59;;;;;;;;;;;20.60;98.50;;;;;;5049695;28;20519;-79
2022/05/07 08:50:26;;;;;;;;;;;21.30;97.10;;;;;;5074902;28;19904;-80
2022/05/07 08:52:53;;;;;;;;;;;21.70;94.80;;;;;;5074805;28;19904;-79
2022/05/07 08:55:20;;;;;;;;;;;22.60;93.90;;;;;;5056758;28;19930;-79
2022/05/07 08:57:46;;;;;;;;;;;24.50;90.20;;;;;;5073383;28;19998;-79
2022/05/07 09:00:13;;;;;;;;;;;25.20;83.60;;;;;;5074485;28;19955;-80
2022/05/07 09:02:41;;;;;;;;;;;24.70;80.80;;;;;;5074296;28;19915;-79
2022/05/07 09:05:08;;;;;;;;;;;23.90;82.90;;;;;;5074302;28;20292;-81
2022/05/07 09:07:33;;;;;;;;;;;23.30;84.40;;;;;;5073840;28;19904;-78
2022/05/07 09:09:59;;;;;;;;;;;22.90;86.70;;;;;;5073254;28;19999;-79
2022/05/07 09:12:25;;;;;;;;;;;22.30;88.80;;;;;;5074218;28;19904;-80
2022/05/07 09:14:51;;;;;;;;;;;21.80;90.60;;;;;;5074346;28;19904;-78
2022/05/07 09:17:20;;;;;;;;;;;21.40;91.40;;;;;;5074039;28;19927;-78
2022/05/07 09:19:45;;;;;;;;;;;21.60;91.20;;;;;;5072067;28;19930;-80
2022/05/07 09:22:11;;;;;;;;;;;21.70;91.00;;;;;;5074061;28;19904;-77
2022/05/07 09:24:38;;;;;;;;;;;21.80;91.30;;;;;;5074232;28;19911;-79
2022/05/07 09:27:04;;;;;;;;;;;21.80;90.40;;;;;;5074202;28;19908;-80
2022/05/07 09:29:30;;;;;;;;;;;21.60;91.70;;;;;;5071880;28;19915;-77
2022/05/07 09:32:10;;;;;;;;;;;22.10;91.20;;;;;;5073710;28;19908;-79
2022/05/07 09:37:36;;;;;;;;;;;22.70;89.00;;;;;;5072802;28;20046;-78
2022/05/07 09:40:03;;;;;;;;;;;23.90;86.30;;;;;;5072188;28;19912;-78
2022/05/07 09:42:29;;;;;;;;;;;24.40;82.10;;;;;;5073559;28;19954;-81
2022/05/07 09:44:55;;;;;;;;;;;24.50;78.50;;;;;;5073780;28;19912;-78
2022/05/07 09:47:20;;;;;;;;;;;24.20;78.00;;;;;;5055798;28;19904;-79
2022/05/07 09:52:30;;;;;;;;;;;29.00;71.30;;;;;;5073909;28;19911;-77
2022/05/07 09:57:41;;;;;;;;;;;30.50;55.40;;;;;;5072529;28;19974;-81
2022/05/07 10:00:10;;;;;;;;;;;28.10;58.90;;;;;;5072885;28;20271;-78
2022/05/07 10:02:54;;;;;;;;;;;27.50;61.80;;;;;;5073473;28;20256;-80
2022/05/07 10:05:39;;;;;;;;;;;27.30;62.00;;;;;;5073556;28;19908;-82
2022/05/07 10:08:23;;;;;;;;;;;26.10;62.90;;;;;;5071368;28;20458;-81
2022/05/07 10:10:50;;;;;;;;;;;25.40;65.50;;;;;;5073133;28;19908;-82
2022/05/07 10:13:17;;;;;;;;;;;25.30;67.50;;;;;;5055231;28;19954;-80
2022/05/07 10:15:44;;;;;;;;;;;27.10;62.60;;;;;;5073021;28;19911;-82
2022/05/07 10:18:14;;;;;;;;;;;30.20;57.90;;;;;;5072791;28;19908;-80
2022/05/07 10:20:41;;;;;;;;;;;33.40;50.80;;;;;;5072964;28;19905;-80
2022/05/07 10:23:08;;;;;;;;;;;35.40;48.90;;;;;;5072592;28;19943;-79
2022/05/07 10:25:34;;;;;;;;;;;37.10;44.70;;;;;;5072676;28;19914;-77
2022/05/07 10:28:06;;;;;;;;;;;33.90;47.70;;;;;;5072515;28;19904;-76
2022/05/07 10:30:43;;;;;;;;;;;30.40;51.20;;;;;;5072540;28;19911;-81
2022/05/07 10:33:09;;;;;;;;;;;28.60;54.10;;;;;;5072854;28;20050;-81
2022/05/07 10:35:40;;;;;;;;;;;27.50;56.20;;;;;;5072583;28;19905;-82
2022/05/07 10:38:09;;;;;;;;;;;26.70;58.50;;;;;;5072361;28;19916;-81
2022/05/07 10:40:35;;;;;;;;;;;26.20;61.40;;;;;;5072744;28;19909;-79
2022/05/07 10:43:00;;;;;;;;;;;26.10;62.00;;;;;;5072553;28;20418;-79
2022/05/07 10:45:27;;;;;;;;;;;26.00;62.40;;;;;;5054408;28;19933;-79
2022/05/07 10:47:53;;;;;;;;;;;26.00;64.60;;;;;;5072949;28;19908;-79
2022/05/07 10:50:21;;;;;;;;;;;27.70;62.60;;;;;;5076354;28;20005;-80
2022/05/07 10:52:53;;;;;;;;;;;29.50;59.20;;;;;;5075909;28;20376;-81
2022/05/07 10:55:23;;;;;;;;;;;30.80;55.70;;;;;;5074677;28;19905;-77
2022/05/07 10:57:49;;;;;;;;;;;30.30;55.40;;;;;;5074536;28;19904;-81
2022/05/07 11:00:14;;;;;;;;;;;29.50;56.00;;;;;;5056377;28;19910;-78
2022/05/07 11:02:40;;;;;;;;;;;28.50;56.90;;;;;;5074702;28;20372;-80
2022/05/07 11:05:06;;;;;;;;;;;27.80;58.70;;;;;;5056535;28;19904;-77
2022/05/07 11:07:32;;;;;;;;;;;27.50;59.10;;;;;;5074733;28;19904;-80
2022/05/07 11:09:58;;;;;;;;;;;26.20;60.20;;;;;;5075365;28;20000;-81
2022/05/07 11:12:26;;;;;;;;;;;25.20;62.90;;;;;;5075492;28;20372;-81
2022/05/07 11:14:52;;;;;;;;;;;24.50;66.40;;;;;;5075483;28;19904;-78
2022/05/07 11:17:40;;;;;;;;;;;24.20;68.50;;;;;;5075495;28;19911;-80
2022/05/07 11:20:06;;;;;;;;;;;24.00;70.90;;;;;;5057425;28;19927;-79
2022/05/07 11:22:32;;;;;;;;;;;24.60;72.20;;;;;;5075965;28;20352;-80
2022/05/07 11:25:00;;;;;;;;;;;27.20;68.00;;;;;;5075336;28;20326;-78
2022/05/07 11:27:30;;;;;;;;;;;31.30;61.30;;;;;;5075498;28;20372;-78
2022/05/07 11:29:56;;;;;;;;;;;31.50;54.10;;;;;;5075449;28;20003;-78
2022/05/07 11:32:22;;;;;;;;;;;29.80;53.90;;;;;;5075292;28;20410;-77
2022/05/07 11:34:52;;;;;;;;;;;33.00;53.50;;;;;;5075510;28;19904;-78
2022/05/07 11:37:21;;;;;;;;;;;36.70;48.60;;;;;;5074862;28;19943;-77
2022/05/07 11:39:48;;;;;;;;;;;38.00;43.60;;;;;;5075345;28;19923;-78
2022/05/07 11:42:26;;;;;;;;;;;39.30;41.10;;;;;;5074996;28;19905;-76
2022/05/07 11:47:49;;;;;;;;;;;33.60;46.60;;;;;;5074908;28;20346;-76
2022/05/07 11:50:17;;;;;;;;;;;33.30;47.00;;;;;;5075444;28;19908;-78
2022/05/07 11:52:43;;;;;;;;;;;36.30;46.00;;;;;;5074846;28;20340;-76
2022/05/07 11:55:09;;;;;;;;;;;39.20;43.00;;;;;;5075052;28;19924;-78
2022/05/07 11:57:39;;;;;;;;;;;41.60;39.50;;;;;;5074910;28;19908;-78
2022/05/07 12:00:17;;;;;;;;;;;43.00;38.10;;;;;;5075337;28;19905;-79
2022/05/07 12:02:53;;;;;;;;;;;44.20;36.40;;;;;;5075118;28;19905;-78
2022/05/07 12:05:19;;;;;;;;;;;44.20;35.60;;;;;;5075003;28;19909;-77
2022/05/07 12:07:46;;;;;;;;;;;42.80;35.00;;;;;;5074988;28;20361;-77
2022/05/07 12:10:11;;;;;;;;;;;41.80;36.80;;;;;;5074875;28;19905;-76
2022/05/07 12:12:37;;;;;;;;;;;42.00;35.90;;;;;;5074862;28;20274;-77
2022/05/07 12:15:02;;;;;;;;;;;37.50;38.80;;;;;;5074873;28;19904;-76
2022/05/07 12:20:12;;;;;;;;;;;39.40;39.30;;;;;;5074459;28;19955;-79
2022/05/07 12:30:50;;;;;;;;;;;32.20;43.50;;;;;;5074149;28;19998;-78
2022/05/07 12:33:16;;;;;;;;;;;35.20;43.20;;;;;;5074308;28;19909;-78
2022/05/07 12:35:41;;;;;;;;;;;37.10;39.30;;;;;;5073915;28;20375;-78
2022/05/07 12:38:07;;;;;;;;;;;38.90;38.00;;;;;;5073688;28;19917;-79
2022/05/07 12:40:32;;;;;;;;;;;41.10;35.80;;;;;;5073892;28;20315;-78
2022/05/07 12:42:58;;;;;;;;;;;42.40;34.30;;;;;;5055788;28;19905;-79
2022/05/07 12:45:24;;;;;;;;;;;43.30;33.50;;;;;;5074270;28;20006;-78
2022/05/07 12:47:50;;;;;;;;;;;44.50;33.00;;;;;;5073713;28;19905;-79
2022/05/07 12:50:16;;;;;;;;;;;45.30;32.10;;;;;;5073845;28;19904;-78
2022/05/07 12:52:41;;;;;;;;;;;44.10;31.60;;;;;;5073744;28;20280;-78
2022/05/07 12:55:07;;;;;;;;;;;38.90;35.10;;;;;;5073593;28;19904;-77
2022/05/07 12:57:33;;;;;;;;;;;37.40;38.00;;;;;;5073706;28;19905;-76
2022/05/07 12:59:58;;;;;;;;;;;40.50;35.40;;;;;;5073448;28;19908;-79
2022/05/07 13:02:24;;;;;;;;;;;39.20;36.30;;;;;;5073755;28;19905;-79
2022/05/07 13:04:50;;;;;;;;;;;40.60;35.10;;;;;;5073587;28;19971;-79
2022/05/07 13:07:15;;;;;;;;;;;42.20;34.00;;;;;;5073351;28;19908;-79
2022/05/07 13:09:41;;;;;;;;;;;39.90;34.70;;;;;;5073490;28;19936;-79
2022/05/07 13:12:07;;;;;;;;;;;39.50;35.70;;;;;;5072899;28;19904;-76
2022/05/07 13:14:35;;;;;;;;;;;40.40;35.00;;;;;;5073477;28;19943;-78
2022/05/07 13:17:01;;;;;;;;;;;41.00;34.60;;;;;;5073269;28;20276;-77
2022/05/07 13:19:27;;;;;;;;;;;41.00;33.80;;;;;;5073304;28;19955;-78
2022/05/07 13:21:54;;;;;;;;;;;42.20;33.30;;;;;;5073763;28;20401;-77
2022/05/07 13:24:19;;;;;;;;;;;40.30;33.30;;;;;;5073210;28;19908;-76
2022/05/07 13:26:45;;;;;;;;;;;37.40;36.10;;;;;;5073139;28;19915;-79
2022/05/07 13:29:12;;;;;;;;;;;37.00;36.10;;;;;;5073419;28;19911;-77
2022/05/07 13:31:38;;;;;;;;;;;38.60;35.80;;;;;;5073182;28;19911;-80
2022/05/07 13:34:04;;;;;;;;;;;38.90;34.80;;;;;;5073224;28;19904;-79
2022/05/07 13:36:30;;;;;;;;;;;39.40;35.00;;;;;;5073134;28;19915;-77
2022/05/07 13:38:56;;;;;;;;;;;38.60;35.60;;;;;;5072871;28;19923;-79
2022/05/07 13:41:22;;;;;;;;;;;36.60;36.50;;;;;;5073371;28;20276;-76
2022/05/07 13:43:48;;;;;;;;;;;34.90;38.00;;;;;;5073447;28;20410;-79
2022/05/07 13:46:13;;;;;;;;;;;34.30;38.80;;;;;;5073133;28;19908;-78
2022/05/07 13:48:39;;;;;;;;;;;33.70;38.80;;;;;;5073270;28;19908;-77
2022/05/07 13:51:07;;;;;;;;;;;31.70;40.70;;;;;;5073469;28;20275;-81
2022/05/07 13:53:33;;;;;;;;;;;30.80;42.70;;;;;;5073373;28;19908;-80
2022/05/07 13:55:59;;;;;;;;;;;29.90;43.70;;;;;;5073222;28;19999;-79
2022/05/07 13:58:25;;;;;;;;;;;28.90;46.00;;;;;;5073246;28;20410;-79
2022/05/07 14:00:51;;;;;;;;;;;30.00;44.90;;;;;;5073417;28;19958;-79
2022/05/07 14:03:17;;;;;;;;;;;29.60;44.10;;;;;;5073195;28;19911;-78
2022/05/07 14:05:43;;;;;;;;;;;31.00;43.60;;;;;;5073280;28;19999;-78
2022/05/07 14:08:08;;;;;;;;;;;32.30;42.80;;;;;;5073088;28;20280;-76
2022/05/07 14:10:34;;;;;;;;;;;32.90;40.70;;;;;;5072908;28;19905;-79
2022/05/07 14:13:00;;;;;;;;;;;33.00;40.90;;;;;;5073025;28;19904;-76
2022/05/07 14:15:25;;;;;;;;;;;32.70;40.70;;;;;;5072961;28;19904;-77
2022/05/07 14:17:51;;;;;;;;;;;31.80;42.70;;;;;;5072992;28;19904;-76
2022/05/07 14:20:17;;;;;;;;;;;33.00;42.30;;;;;;5073115;28;19927;-76
2022/05/07 14:22:42;;;;;;;;;;;33.30;41.30;;;;;;5073033;28;20317;-78
2022/05/07 14:25:08;;;;;;;;;;;33.50;40.90;;;;;;5077090;28;19904;-77
2022/05/07 14:27:36;;;;;;;;;;;33.30;40.50;;;;;;5076695;28;19911;-75
2022/05/07 14:30:02;;;;;;;;;;;33.30;40.70;;;;;;5058654;28;20361;-76
2022/05/07 14:32:28;;;;;;;;;;;33.30;40.60;;;;;;5076598;28;20003;-75
2022/05/07 14:34:53;;;;;;;;;;;32.80;41.60;;;;;;5058544;28;19948;-76
2022/05/07 14:37:19;;;;;;;;;;;33.10;41.20;;;;;;5076306;28;19972;-76
2022/05/07 14:39:44;;;;;;;;;;;32.30;42.00;;;;;;5076729;28;19963;-78
2022/05/07 14:42:10;;;;;;;;;;;32.80;42.10;;;;;;5076377;28;19927;-77
2022/05/07 14:44:37;;;;;;;;;;;32.80;41.80;;;;;;5076955;28;20392;-76
2022/05/07 14:47:03;;;;;;;;;;;32.80;42.00;;;;;;5076277;28;19923;-78
2022/05/07 14:49:28;;;;;;;;;;;32.30;41.60;;;;;;5076496;28;19904;-79
2022/05/07 14:51:54;;;;;;;;;;;31.30;42.60;;;;;;5076245;28;19958;-78
2022/05/07 14:54:19;;;;;;;;;;;30.30;43.80;;;;;;5076419;28;20387;-80
2022/05/07 14:56:45;;;;;;;;;;;31.60;44.20;;;;;;5076433;28;19911;-78
2022/05/07 14:59:10;;;;;;;;;;;32.90;42.20;;;;;;5076514;28;20271;-81
2022/05/07 15:01:37;;;;;;;;;;;33.10;41.80;;;;;;5076591;28;20408;-81